Bordeaux/Merignac

Airport
ICAO code: 
LFBD
Summary
ICAO Region: 
EUR
Territory: 
Location: 
Bordeaux/Merignac, Aquitaine,
Coordinates: 
Aerial View: 
44° 49' 41.88" N, 0° 42' 56.002" W
Metar
Observation
LFBD 291800Z AUTO 04004KT CAVOK 05/03 Q1021 NOSIG
Station
Bordeaux / Merignac
Date/Time
2021-11-29 18:00:00
Wind direction
40°
Wind speed
04 kts
Lowest cloud amount
clouds and visibility OK
Temperature
5°C
Dew point
3°C
Humidity
86%
QNH
1021 hPa
Weather condition
n/a

Description

International airport serving city of Bordeaux.

Climatology

Temperate Marine climate/Oceanic climate (Köppen climate classification Cfb). Moderately cool summer and comparatively warm winter with a temperature range of only 14°C. Prevailing south-westerly winds from the Atlantic Ocean.

Runways

Designator Length Width Surface Rops
11/29 2415 45 ASP Yes/Yes
5/23 3100 45 ASP Yes/Yes
Airport map: 
Aerial View: 

SKYbrary Partners:

Safety knowledge contributed by: